PWSweather.com
Personal Weather Stations
Station Observations
SHAHALMS1
Eftra, Falkenberg, HA

EftraFalkenberg, HA

Lat: 56.85, Lon: 12.65

Elevation: 140

Station Type:

http://hem.passagen.se/risarp101

High Low Average
Temperature 59.5°F15.3°C 47.7°F8.7°C 54.5°F12.5°C
Dew Point 53.6°F12.0°C 43.1°F6.2°C 50.2°F10.1°C
Winds 8.3 mph 13.4 kmh Calm Calm 3.0 mph S4.8 kmh S
Wind Gusts 20.0 mph32.2 kmh -- 8.0 mph12.9 kmh
Humidity 91% 77% 86%
Pressure 30.18 in1022.0 mb 30.01 in1016.3 mb -
Precipitation 0.00 in0.0 mm - -
Hour Temp Dew Point Humidity Winds Wind Gusts Pressure Precip Precip Rate Daily Precip Total
12:00 AM 54.9°F12.7°C 52.0°F11.1°C 90% 6.8 mph SSW10.9 kmh SSW 14.0 mph22.5 kmh 30.04 in1017.3 mb 0.00 in0.0 mm 0.00 in0.0 mm 0.00 in0.0 mm
12:15 AM 54.9°F12.7°C 52.0°F11.1°C 90% 7.9 mph SSW12.7 kmh SSW 17.5 mph28.2 kmh 30.01 in1016.3 mb 0.00 in0.0 mm 0.00 in0.0 mm 0.00 in0.0 mm
12:30 AM 54.9°F12.7°C 52.0°F11.1°C 90% 7.9 mph SSW12.7 kmh SSW 20.0 mph32.2 kmh 30.01 in1016.3 mb 0.00 in0.0 mm 0.00 in0.0 mm 0.00 in0.0 mm
12:45 AM 54.9°F12.7°C 52.0°F11.1°C 90% 6.8 mph SW10.9 kmh SW 15.7 mph25.3 kmh 30.04 in1017.3 mb 0.00 in0.0 mm 0.00 in0.0 mm 0.00 in0.0 mm
01:00 AM 54.9°F12.7°C 52.0°F11.1°C 90% 7.2 mph SW11.6 kmh SW 15.0 mph24.1 kmh 30.01 in1016.3 mb 0.00 in0.0 mm 0.00 in0.0 mm 0.00 in0.0 mm
01:15 AM 54.7°F12.6°C 51.8°F11.0°C 90% 8.1 mph WSW13.0 kmh WSW 17.5 mph28.2 kmh 30.01 in1016.3 mb 0.00 in0.0 mm 0.00 in0.0 mm 0.00 in0.0 mm
01:30 AM 54.5°F12.5°C 51.6°F10.9°C 90% 6.6 mph SW10.6 kmh SW 13.6 mph21.9 kmh 30.04 in1017.3 mb 0.00 in0.0 mm 0.00 in0.0 mm 0.00 in0.0 mm
01:45 AM 54.7°F12.6°C 51.8°F11.0°C 90% 7.7 mph WSW12.4 kmh WSW 14.0 mph22.5 kmh 30.01 in1016.3 mb 0.00 in0.0 mm 0.00 in0.0 mm 0.00 in0.0 mm
02:00 AM 54.7°F12.6°C 52.1°F11.2°C 91% 8.3 mph SSW13.4 kmh SSW 16.5 mph26.6 kmh 30.01 in1016.3 mb 0.00 in0.0 mm 0.00 in0.0 mm 0.00 in0.0 mm
02:15 AM 54.7°F12.6°C 52.1°F11.2°C 91% 7.9 mph SW12.7 kmh SW 17.5 mph28.2 kmh 30.04 in1017.3 mb 0.00 in0.0 mm 0.00 in0.0 mm 0.00 in0.0 mm
02:30 AM 54.7°F12.6°C 52.1°F11.2°C 91% 7.1 mph SW11.4 kmh SW 16.5 mph26.6 kmh 30.04 in1017.3 mb 0.00 in0.0 mm 0.00 in0.0 mm 0.00 in0.0 mm
02:45 AM 54.7°F12.6°C 52.1°F11.2°C 91% 8.3 mph SW13.4 kmh SW 17.2 mph27.7 kmh 30.04 in1017.3 mb 0.00 in0.0 mm 0.00 in0.0 mm 0.00 in0.0 mm
03:00 AM 54.5°F12.5°C 51.9°F11.1°C 91% 7.0 mph WSW11.3 kmh WSW 12.5 mph20.1 kmh 30.07 in1018.3 mb 0.00 in0.0 mm 0.00 in0.0 mm 0.00 in0.0 mm
03:15 AM 54.5°F12.5°C 51.9°F11.1°C 91% 6.5 mph W10.5 kmh W 12.9 mph20.8 kmh 30.04 in1017.3 mb 0.00 in0.0 mm 0.00 in0.0 mm 0.00 in0.0 mm
03:30 AM 54.5°F12.5°C 51.9°F11.1°C 91% 4.8 mph WSW7.7 kmh WSW 11.8 mph19.0 kmh 30.07 in1018.3 mb 0.00 in0.0 mm 0.00 in0.0 mm 0.00 in0.0 mm
03:45 AM 54.7°F12.6°C 52.1°F11.2°C 91% 5.7 mph WSW9.2 kmh WSW 12.2 mph19.6 kmh 30.04 in1017.3 mb 0.00 in0.0 mm 0.00 in0.0 mm 0.00 in0.0 mm
04:00 AM 54.7°F12.6°C 52.1°F11.2°C 91% 5.0 mph WSW8.0 kmh WSW 11.8 mph19.0 kmh 30.07 in1018.3 mb 0.00 in0.0 mm 0.00 in0.0 mm 0.00 in0.0 mm
04:15 AM 54.7°F12.6°C 52.1°F11.2°C 91% 4.8 mph WSW7.7 kmh WSW 10.4 mph16.7 kmh 30.07 in1018.3 mb 0.00 in0.0 mm 0.00 in0.0 mm 0.00 in0.0 mm
04:30 AM 54.7°F12.6°C 52.1°F11.2°C 91% 5.8 mph WSW9.3 kmh WSW 12.2 mph19.6 kmh 30.07 in1018.3 mb 0.00 in0.0 mm 0.00 in0.0 mm 0.00 in0.0 mm
04:45 AM 54.7°F12.6°C 52.1°F11.2°C 91% 4.2 mph W6.8 kmh W 9.7 mph15.6 kmh 30.07 in1018.3 mb 0.00 in0.0 mm 0.00 in0.0 mm 0.00 in0.0 mm
05:00 AM 54.7°F12.6°C 52.1°F11.2°C 91% 4.9 mph WSW7.9 kmh WSW 11.8 mph19.0 kmh 30.07 in1018.3 mb 0.00 in0.0 mm 0.00 in0.0 mm 0.00 in0.0 mm
05:15 AM 54.7°F12.6°C 52.1°F11.2°C 91% 4.9 mph W7.9 kmh W 11.8 mph19.0 kmh 30.07 in1018.3 mb 0.00 in0.0 mm 0.00 in0.0 mm 0.00 in0.0 mm
05:30 AM 54.7°F12.6°C 52.1°F11.2°C 91% 5.3 mph W8.5 kmh W 10.4 mph16.7 kmh 30.07 in1018.3 mb 0.00 in0.0 mm 0.00 in0.0 mm 0.00 in0.0 mm
05:45 AM 54.7°F12.6°C 52.1°F11.2°C 91% 2.5 mph W4.0 kmh W 6.4 mph10.3 kmh 30.07 in1018.3 mb 0.00 in0.0 mm 0.00 in0.0 mm 0.00 in0.0 mm
06:00 AM 54.7°F12.6°C 52.1°F11.2°C 91% 4.3 mph W6.9 kmh W 10.4 mph16.7 kmh 30.07 in1018.3 mb 0.00 in0.0 mm 0.00 in0.0 mm 0.00 in0.0 mm
06:15 AM 54.7°F12.6°C 52.1°F11.2°C 91% 4.5 mph WSW7.2 kmh WSW 11.8 mph19.0 kmh 30.09 in1019.0 mb 0.00 in0.0 mm 0.00 in0.0 mm 0.00 in0.0 mm
06:31 AM 54.7°F12.6°C 52.1°F11.2°C 91% 4.1 mph W6.6 kmh W 9.3 mph15.0 kmh 30.09 in1019.0 mb 0.00 in0.0 mm 0.00 in0.0 mm 0.00 in0.0 mm
06:45 AM 54.7°F12.6°C 52.1°F11.2°C 91% 3.6 mph W5.8 kmh W 6.4 mph10.3 kmh 30.09 in1019.0 mb 0.00 in0.0 mm 0.00 in0.0 mm 0.00 in0.0 mm
07:00 AM 54.7°F12.6°C 52.1°F11.2°C 91% 4.1 mph SW6.6 kmh SW 8.9 mph14.3 kmh 30.09 in1019.0 mb 0.00 in0.0 mm 0.00 in0.0 mm 0.00 in0.0 mm
07:15 AM 54.7°F12.6°C 52.1°F11.2°C 91% 3.9 mph WSW6.3 kmh WSW 9.3 mph15.0 kmh 30.09 in1019.0 mb 0.00 in0.0 mm 0.00 in0.0 mm 0.00 in0.0 mm
07:30 AM 54.9°F12.7°C 52.3°F11.3°C 91% 3.8 mph SSW6.1 kmh SSW 10.0 mph16.1 kmh 30.07 in1018.3 mb 0.00 in0.0 mm 0.00 in0.0 mm 0.00 in0.0 mm
07:45 AM 54.9°F12.7°C 52.3°F11.3°C 91% 4.4 mph WSW7.1 kmh WSW 8.9 mph14.3 kmh 30.09 in1019.0 mb 0.00 in0.0 mm 0.00 in0.0 mm 0.00 in0.0 mm
08:00 AM 55.0°F12.8°C 52.2°F11.2°C 90% 3.0 mph S4.8 kmh S 6.8 mph10.9 kmh 30.09 in1019.0 mb 0.00 in0.0 mm 0.00 in0.0 mm 0.00 in0.0 mm
08:15 AM 55.4°F13.0°C 52.5°F11.4°C 90% 3.7 mph SW6.0 kmh SW 8.9 mph14.3 kmh 30.12 in1020.0 mb 0.00 in0.0 mm 0.00 in0.0 mm 0.00 in0.0 mm
08:30 AM 55.6°F13.1°C 52.7°F11.5°C 90% 2.2 mph SSW3.5 kmh SSW 6.1 mph9.8 kmh 30.12 in1020.0 mb 0.00 in0.0 mm 0.00 in0.0 mm 0.00 in0.0 mm
08:45 AM 55.9°F13.3°C 53.0°F11.7°C 90% 2.9 mph S4.7 kmh S 9.3 mph15.0 kmh 30.15 in1021.0 mb 0.00 in0.0 mm 0.00 in0.0 mm 0.00 in0.0 mm
09:00 AM 56.3°F13.5°C 53.4°F11.9°C 90% 4.4 mph S7.1 kmh S 10.0 mph16.1 kmh 30.15 in1021.0 mb 0.00 in0.0 mm 0.00 in0.0 mm 0.00 in0.0 mm
09:15 AM 56.3°F13.5°C 53.4°F11.9°C 90% 5.1 mph S8.2 kmh S 11.5 mph18.5 kmh 30.15 in1021.0 mb 0.00 in0.0 mm 0.00 in0.0 mm 0.00 in0.0 mm
09:30 AM 56.5°F13.6°C 53.3°F11.8°C 89% 3.8 mph SSW6.1 kmh SSW 12.9 mph20.8 kmh 30.15 in1021.0 mb 0.00 in0.0 mm 0.00 in0.0 mm 0.00 in0.0 mm
09:45 AM 56.3°F13.5°C 53.1°F11.7°C 89% 3.7 mph WSW6.0 kmh WSW 8.6 mph13.8 kmh 30.12 in1020.0 mb 0.00 in0.0 mm 0.00 in0.0 mm 0.00 in0.0 mm
10:00 AM 56.5°F13.6°C 53.3°F11.8°C 89% 3.3 mph SW5.3 kmh SW 6.8 mph10.9 kmh 30.12 in1020.0 mb 0.00 in0.0 mm 0.00 in0.0 mm 0.00 in0.0 mm
10:15 AM 56.7°F13.7°C 53.1°F11.7°C 88% 1.6 mph S2.6 kmh S 6.4 mph10.3 kmh 30.15 in1021.0 mb 0.00 in0.0 mm 0.00 in0.0 mm 0.00 in0.0 mm
10:30 AM 56.7°F13.7°C 53.1°F11.7°C 88% 2.8 mph S4.5 kmh S 7.5 mph12.1 kmh 30.15 in1021.0 mb 0.00 in0.0 mm 0.00 in0.0 mm 0.00 in0.0 mm
10:45 AM 56.7°F13.7°C 52.8°F11.6°C 87% 4.5 mph S7.2 kmh S 9.7 mph15.6 kmh 30.18 in1022.0 mb 0.00 in0.0 mm 0.00 in0.0 mm 0.00 in0.0 mm
11:00 AM 56.8°F13.8°C 52.7°F11.5°C 86% 4.0 mph S6.4 kmh S 10.4 mph16.7 kmh 30.18 in1022.0 mb 0.00 in0.0 mm 0.00 in0.0 mm 0.00 in0.0 mm
11:15 AM 57.2°F14.0°C 53.0°F11.7°C 86% 4.1 mph SSW6.6 kmh SSW 10.4 mph16.7 kmh 30.18 in1022.0 mb 0.00 in0.0 mm 0.00 in0.0 mm 0.00 in0.0 mm
11:30 AM 57.6°F14.2°C 53.1°F11.7°C 85% 3.0 mph SSW4.8 kmh SSW 9.3 mph15.0 kmh 30.18 in1022.0 mb 0.00 in0.0 mm 0.00 in0.0 mm 0.00 in0.0 mm
11:45 AM 57.9°F14.4°C 53.1°F11.7°C 84% 4.1 mph SW6.6 kmh SW 10.0 mph16.1 kmh 30.18 in1022.0 mb 0.00 in0.0 mm 0.00 in0.0 mm 0.00 in0.0 mm
12:00 PM 58.5°F14.7°C 53.6°F12.0°C 84% 2.6 mph S4.2 kmh S 7.5 mph12.1 kmh 30.18 in1022.0 mb 0.00 in0.0 mm 0.00 in0.0 mm 0.00 in0.0 mm
12:15 PM 58.5°F14.7°C 53.3°F11.8°C 83% 2.2 mph SW3.5 kmh SW 5.7 mph9.2 kmh 30.18 in1022.0 mb 0.00 in0.0 mm 0.00 in0.0 mm 0.00 in0.0 mm
12:30 PM 58.6°F14.8°C 53.5°F11.9°C 83% 2.1 mph S3.4 kmh S 7.5 mph12.1 kmh 30.18 in1022.0 mb 0.00 in0.0 mm 0.00 in0.0 mm 0.00 in0.0 mm
12:45 PM 58.5°F14.7°C 53.0°F11.7°C 82% 3.5 mph SSW5.6 kmh SSW 8.9 mph14.3 kmh 30.18 in1022.0 mb 0.00 in0.0 mm 0.00 in0.0 mm 0.00 in0.0 mm
01:00 PM 58.6°F14.8°C 53.2°F11.8°C 82% 0.1 mph N0.2 kmh N 1.8 mph2.9 kmh 30.18 in1022.0 mb 0.00 in0.0 mm 0.00 in0.0 mm 0.00 in0.0 mm
01:15 PM 59.0°F15.0°C 53.5°F11.9°C 82% 0.4 mph SSE0.6 kmh SSE 5.7 mph9.2 kmh 30.18 in1022.0 mb 0.00 in0.0 mm 0.00 in0.0 mm 0.00 in0.0 mm
01:30 PM 59.0°F15.0°C 53.2°F11.8°C 81% 0.3 mph N0.5 kmh N 3.6 mph5.8 kmh 30.18 in1022.0 mb 0.00 in0.0 mm 0.00 in0.0 mm 0.00 in0.0 mm
01:45 PM 59.0°F15.0°C 52.8°F11.6°C 80% 1.9 mph SW3.1 kmh SW 8.6 mph13.8 kmh 30.18 in1022.0 mb 0.00 in0.0 mm 0.00 in0.0 mm 0.00 in0.0 mm
02:00 PM 59.2°F15.1°C 53.0°F11.7°C 80% 2.7 mph S4.3 kmh S 6.8 mph10.9 kmh 30.18 in1022.0 mb 0.00 in0.0 mm 0.00 in0.0 mm 0.00 in0.0 mm
02:15 PM 59.4°F15.2°C 52.8°F11.6°C 79% 2.7 mph S4.3 kmh S 6.8 mph10.9 kmh 30.18 in1022.0 mb 0.00 in0.0 mm 0.00 in0.0 mm 0.00 in0.0 mm
02:31 PM 59.5°F15.3°C 53.0°F11.7°C 79% 1.7 mph W2.7 kmh W 5.7 mph9.2 kmh 30.18 in1022.0 mb 0.00 in0.0 mm 0.00 in0.0 mm 0.00 in0.0 mm
02:45 PM 59.5°F15.3°C 53.0°F11.7°C 79% 1.1 mph SSE1.8 kmh SSE 3.9 mph6.3 kmh 30.15 in1021.0 mb 0.00 in0.0 mm 0.00 in0.0 mm 0.00 in0.0 mm
03:00 PM 59.5°F15.3°C 52.7°F11.5°C 78% 0.4 mph S0.6 kmh S 7.5 mph12.1 kmh 30.15 in1021.0 mb 0.00 in0.0 mm 0.00 in0.0 mm 0.00 in0.0 mm
03:15 PM 59.4°F15.2°C 52.5°F11.4°C 78% Calm Calm -- 30.15 in1021.0 mb 0.00 in0.0 mm 0.00 in0.0 mm 0.00 in0.0 mm
03:30 PM 59.0°F15.0°C 51.8°F11.0°C 77% Calm Calm -- 30.15 in1021.0 mb 0.00 in0.0 mm 0.00 in0.0 mm 0.00 in0.0 mm
03:45 PM 58.8°F14.9°C 52.0°F11.1°C 78% Calm Calm -- 30.15 in1021.0 mb 0.00 in0.0 mm 0.00 in0.0 mm 0.00 in0.0 mm
04:00 PM 58.5°F14.7°C 51.6°F10.9°C 78% Calm Calm -- 30.15 in1021.0 mb 0.00 in0.0 mm 0.00 in0.0 mm 0.00 in0.0 mm
04:15 PM 57.9°F14.4°C 50.8°F10.4°C 77% 0.4 mph ESE0.6 kmh ESE 4.3 mph6.9 kmh 30.15 in1021.0 mb 0.00 in0.0 mm 0.00 in0.0 mm 0.00 in0.0 mm
04:30 PM 57.6°F14.2°C 50.4°F10.2°C 77% Calm Calm -- 30.15 in1021.0 mb 0.00 in0.0 mm 0.00 in0.0 mm 0.00 in0.0 mm
04:45 PM 56.5°F13.6°C 49.4°F9.7°C 77% Calm Calm -- 30.15 in1021.0 mb 0.00 in0.0 mm 0.00 in0.0 mm 0.00 in0.0 mm
05:00 PM 55.4°F13.0°C 48.3°F9.1°C 77% Calm Calm -- 30.15 in1021.0 mb 0.00 in0.0 mm 0.00 in0.0 mm 0.00 in0.0 mm
05:15 PM 55.0°F12.8°C 48.3°F9.1°C 78% 0.3 mph S0.5 kmh S 2.1 mph3.4 kmh 30.15 in1021.0 mb 0.00 in0.0 mm 0.00 in0.0 mm 0.00 in0.0 mm
05:30 PM 54.7°F12.6°C 48.3°F9.1°C 79% Calm Calm -- 30.15 in1021.0 mb 0.00 in0.0 mm 0.00 in0.0 mm 0.00 in0.0 mm
05:45 PM 53.2°F11.8°C 46.6°F8.1°C 78% 0.4 mph SE0.6 kmh SE 4.3 mph6.9 kmh 30.15 in1021.0 mb 0.00 in0.0 mm 0.00 in0.0 mm 0.00 in0.0 mm
06:00 PM 52.5°F11.4°C 46.2°F7.9°C 79% 0.7 mph SE1.1 kmh SE 4.7 mph7.6 kmh 30.18 in1022.0 mb 0.00 in0.0 mm 0.00 in0.0 mm 0.00 in0.0 mm
06:15 PM 51.6°F10.9°C 45.3°F7.4°C 79% 1.4 mph SE2.3 kmh SE 4.7 mph7.6 kmh 30.15 in1021.0 mb 0.00 in0.0 mm 0.00 in0.0 mm 0.00 in0.0 mm
06:30 PM 51.1°F10.6°C 45.5°F7.5°C 81% 2.6 mph SE4.2 kmh SE 7.9 mph12.7 kmh 30.15 in1021.0 mb 0.00 in0.0 mm 0.00 in0.0 mm 0.00 in0.0 mm
06:45 PM 51.1°F10.6°C 45.8°F7.7°C 82% 2.2 mph SE3.5 kmh SE 6.8 mph10.9 kmh 30.18 in1022.0 mb 0.00 in0.0 mm 0.00 in0.0 mm 0.00 in0.0 mm
07:00 PM 50.5°F10.3°C 45.2°F7.3°C 82% Calm Calm -- 30.18 in1022.0 mb 0.00 in0.0 mm 0.00 in0.0 mm 0.00 in0.0 mm
07:15 PM 50.4°F10.2°C 45.4°F7.4°C 83% Calm Calm -- 30.18 in1022.0 mb 0.00 in0.0 mm 0.00 in0.0 mm 0.00 in0.0 mm
07:30 PM 50.2°F10.1°C 45.5°F7.5°C 84% 3.2 mph SE5.1 kmh SE 7.9 mph12.7 kmh 30.18 in1022.0 mb 0.00 in0.0 mm 0.00 in0.0 mm 0.00 in0.0 mm
07:45 PM 50.2°F10.1°C 45.5°F7.5°C 84% 6.7 mph SE10.8 kmh SE 10.4 mph16.7 kmh 30.18 in1022.0 mb 0.00 in0.0 mm 0.00 in0.0 mm 0.00 in0.0 mm
08:00 PM 50.2°F10.1°C 45.5°F7.5°C 84% 6.4 mph ESE10.3 kmh ESE 10.0 mph16.1 kmh 30.18 in1022.0 mb 0.00 in0.0 mm 0.00 in0.0 mm 0.00 in0.0 mm
08:15 PM 50.0°F10.0°C 45.4°F7.4°C 84% 6.8 mph ESE10.9 kmh ESE 9.7 mph15.6 kmh 30.18 in1022.0 mb 0.00 in0.0 mm 0.00 in0.0 mm 0.00 in0.0 mm
08:30 PM 50.0°F10.0°C 45.4°F7.4°C 84% 6.2 mph SE10.0 kmh SE 10.0 mph16.1 kmh 30.18 in1022.0 mb 0.00 in0.0 mm 0.00 in0.0 mm 0.00 in0.0 mm
08:45 PM 49.8°F9.9°C 45.2°F7.3°C 84% 5.9 mph E9.5 kmh E 10.4 mph16.7 kmh 30.18 in1022.0 mb 0.00 in0.0 mm 0.00 in0.0 mm 0.00 in0.0 mm
09:00 PM 49.3°F9.6°C 44.3°F6.8°C 83% 1.0 mph E1.6 kmh E 5.7 mph9.2 kmh 30.18 in1022.0 mb 0.00 in0.0 mm 0.00 in0.0 mm 0.00 in0.0 mm
09:15 PM 48.4°F9.1°C 43.1°F6.2°C 82% 0.2 mph E0.3 kmh E 3.9 mph6.3 kmh 30.18 in1022.0 mb 0.00 in0.0 mm 0.00 in0.0 mm 0.00 in0.0 mm
09:30 PM 48.0°F8.9°C 43.1°F6.2°C 83% 2.8 mph E4.5 kmh E 7.5 mph12.1 kmh 30.18 in1022.0 mb 0.00 in0.0 mm 0.00 in0.0 mm 0.00 in0.0 mm
09:45 PM 48.4°F9.1°C 43.8°F6.6°C 84% 2.9 mph ESE4.7 kmh ESE 7.9 mph12.7 kmh 30.18 in1022.0 mb 0.00 in0.0 mm 0.00 in0.0 mm 0.00 in0.0 mm
10:00 PM 48.2°F9.0°C 43.6°F6.4°C 84% 0.6 mph E1.0 kmh E 6.1 mph9.8 kmh 30.18 in1022.0 mb 0.00 in0.0 mm 0.00 in0.0 mm 0.00 in0.0 mm
10:15 PM 48.2°F9.0°C 43.6°F6.4°C 84% 0.1 mph SE0.2 kmh SE 5.4 mph8.7 kmh 30.18 in1022.0 mb 0.00 in0.0 mm 0.00 in0.0 mm 0.00 in0.0 mm
10:35 PM 48.6°F9.2°C 44.3°F6.8°C 85% 4.1 mph E6.6 kmh E 5.0 mph8.0 kmh 30.18 in1022.0 mb 0.00 in0.0 mm 0.00 in0.0 mm 0.00 in0.0 mm
10:45 PM 48.6°F9.2°C 44.3°F6.8°C 85% 0.2 mph E0.3 kmh E 5.0 mph8.0 kmh 30.18 in1022.0 mb 0.00 in0.0 mm 0.00 in0.0 mm 0.00 in0.0 mm
11:00 PM 48.2°F9.0°C 43.6°F6.4°C 84% 0.1 mph E0.2 kmh E 5.0 mph8.0 kmh 30.15 in1021.0 mb 0.00 in0.0 mm 0.00 in0.0 mm 0.00 in0.0 mm
11:15 PM 48.0°F8.9°C 43.7°F6.5°C 85% 0.4 mph E0.6 kmh E 5.0 mph8.0 kmh 30.15 in1021.0 mb 0.00 in0.0 mm 0.00 in0.0 mm 0.00 in0.0 mm
11:30 PM 47.7°F8.7°C 43.4°F6.3°C 85% 0.1 mph E0.2 kmh E 5.0 mph8.0 kmh 30.15 in1021.0 mb 0.00 in0.0 mm 0.00 in0.0 mm 0.00 in0.0 mm
11:45 PM 47.7°F8.7°C 43.4°F6.3°C 85% 0.6 mph E1.0 kmh E 5.7 mph9.2 kmh 30.15 in1021.0 mb 0.00 in0.0 mm 0.00 in0.0 mm 0.00 in0.0 mm